Westview, NY

1:14 PM EDT on July 28, 2017 (GMT -0400)
Shooting Star Farm | | Change Station

Elev 909 ft 42.84 °N, 77.68 °W | Updated 17 minutes ago

Overcast
Overcast
68.7 °F
Feels Like 68.7 °F
N
4.0
Wind Variable Wind from NE

Today
High -- | Low -- °F
--% Chance of Precip.
Yesterday
High -- | Low -- °F
Precip. -- in
Pressure 29.96 in
Visibility 10.0 miles
Clouds Few 3000 ft
Mostly Cloudy 3600 ft
Dew Point 62.6 °F
Humidity 81%
Rainfall 0.00 in
Snow Depth Not available.
5:59 AM 8:35 PM
Waxing Crescent, 31% visible
METAR KDSV 281654Z AUTO 32010KT 10SM FEW030 BKN036 23/16 A2994 RMK AO2 SLP145 T02280161
Pressure 29.96 in
Visibility 10.0 miles
Clouds Few 3000 ft
Mostly Cloudy 3600 ft
Dew Point 62.6 °F
Humidity 81%
Rainfall 0.00 in
Snow Depth Not available.
5:59 AM 8:35 PM
Waxing Crescent, 31% visible
METAR KDSV 281654Z AUTO 32010KT 10SM FEW030 BKN036 23/16 A2994 RMK AO2 SLP145 T02280161

Get Severe Weather Alerts

Thanks for signing up!

Be on the lookout for a verification email in your inbox.

You'll start receiving the daily forecast at 6 AM.

×

10-Day Weather Forecast

Almanac

Astronomy

Jul. 28, 2017 Rise Set
Actual Time
Civil Twilight
Nautical Twilight
Astronomical Twilight
Moon
Length of Visible Light
Length of Day
Tomorrow will be .
, % of the Moon is Illuminated

Today's Extremes

State Highs State Lows

Community

WunderPhotos

Category 6

Welcome to Category 6. This is the collective home for Weather Underground's featured writeups by Dr. Jeff Masters (right), Bob Henson (left), Chris Burt, and other regular contributors.

Nearby

Air Quality

  Air Quality AQ Index Pollutant
Not available.

Snow Depth

Station Depth Elevation

Earthquake Activity

City Distance Mag. Time & Date
Minimum magnitude displayed is 2.5.

Coastal Water Temperatures

Place Temperature

Stations

Nearby Weather Stations

Station Location Temp. Windchill Dew Point Humidity Wind Precip. Elev Updated Type
                   

Watches & Warnings

There are currently no watches in effect.